createdAt,value
2018-09-17T00:02:17.133Z,84.20
2018-09-17T00:04:46.704Z,83.40
2018-09-17T00:07:15.848Z,83.70
2018-09-17T00:09:45.024Z,84.50
2018-09-17T00:12:14.289Z,84.70
2018-09-17T00:14:43.629Z,85.30
2018-09-17T00:17:12.693Z,84.00
2018-09-17T00:19:41.901Z,82.80
2018-09-17T00:22:11.118Z,82.30
2018-09-17T00:24:40.244Z,82.90
2018-09-17T00:27:09.294Z,87.70
2018-09-17T00:29:38.340Z,84.60
2018-09-17T00:32:07.911Z,84.40
2018-09-17T00:37:05.728Z,82.10
2018-09-17T00:39:34.971Z,83.00
2018-09-17T00:42:05.057Z,82.30
2018-09-17T00:44:34.121Z,82.20
2018-09-17T00:47:03.276Z,83.50
2018-09-17T00:49:32.516Z,84.90
2018-09-17T00:52:01.713Z,84.80
2018-09-17T00:54:31.049Z,84.60
2018-09-17T00:57:00.235Z,85.60
2018-09-17T00:59:29.438Z,85.80
2018-09-17T01:01:58.577Z,86.70
2018-09-17T01:04:27.688Z,87.20
2018-09-17T01:06:57.569Z,86.40
2018-09-17T01:09:31.844Z,85.70
2018-09-17T01:12:00.912Z,85.40
2018-09-17T01:14:30.112Z,85.60
2018-09-17T01:16:59.184Z,85.50
2018-09-17T01:19:28.246Z,86.30
2018-09-17T01:21:57.312Z,87.10
2018-09-17T01:24:26.418Z,87.40
2018-09-17T01:26:55.440Z,87.20
2018-09-17T01:29:24.553Z,89.40
2018-09-17T01:31:53.604Z,90.70
2018-09-17T01:34:23.340Z,91.60
2018-09-17T01:36:52.672Z,92.10
2018-09-17T01:39:21.809Z,92.40
2018-09-17T01:41:50.949Z,91.90
2018-09-17T01:44:19.990Z,90.60
2018-09-17T01:46:49.222Z,92.00
2018-09-17T01:49:18.441Z,92.00
2018-09-17T01:51:48.192Z,93.30
2018-09-17T01:54:17.427Z,91.80
2018-09-17T01:56:46.472Z,90.40
2018-09-17T01:59:15.524Z,91.90
2018-09-17T02:01:44.646Z,92.30
2018-09-17T02:04:13.725Z,92.10
2018-09-17T02:06:42.791Z,89.50
2018-09-17T02:09:12.075Z,88.50
2018-09-17T02:11:41.164Z,88.70
2018-09-17T02:14:10.281Z,87.50
2018-09-17T02:16:39.315Z,88.00
2018-09-17T02:19:08.388Z,88.50
2018-09-17T02:21:37.448Z,87.90
2018-09-17T02:24:06.609Z,89.10
2018-09-17T02:26:35.887Z,88.60
2018-09-17T02:29:05.724Z,88.40
2018-09-17T02:31:34.792Z,88.30
2018-09-17T02:34:03.851Z,88.50
2018-09-17T02:36:33.632Z,88.80
2018-09-17T02:39:03.135Z,88.20
2018-09-17T02:41:32.230Z,88.70
2018-09-17T02:44:01.816Z,89.00
2018-09-17T02:46:30.970Z,90.80
2018-09-17T02:49:00.149Z,90.80
2018-09-17T02:51:29.289Z,89.40
2018-09-17T02:53:58.392Z,88.70
2018-09-17T02:56:27.564Z,89.90
2018-09-17T02:58:56.607Z,91.00
2018-09-17T03:01:25.669Z,91.50
2018-09-17T03:03:54.801Z,90.10
2018-09-17T03:06:23.965Z,90.20
2018-09-17T03:08:53.064Z,89.70
2018-09-17T03:11:22.157Z,90.50
2018-09-17T03:13:51.336Z,90.10
2018-09-17T03:16:20.561Z,89.10
2018-09-17T03:18:54.860Z,89.00
2018-09-17T03:21:24.111Z,91.60
2018-09-17T03:23:53.540Z,92.00
2018-09-17T03:26:23.113Z,91.10
2018-09-17T03:28:52.468Z,90.60
2018-09-17T03:31:21.576Z,89.50
2018-09-17T03:33:50.687Z,89.10
2018-09-17T03:36:19.862Z,89.80
2018-09-17T03:38:50.036Z,90.00
2018-09-17T03:41:20.180Z,89.80
2018-09-17T03:43:51.292Z,91.90
2018-09-17T03:46:20.401Z,93.10
2018-09-17T03:48:49.401Z,93.90
2018-09-17T03:51:18.491Z,94.30
2018-09-17T03:53:47.576Z,93.30
2018-09-17T03:56:16.669Z,92.50
2018-09-17T03:58:45.836Z,92.20
2018-09-17T04:01:14.938Z,92.70
2018-09-17T04:03:43.957Z,92.30
2018-09-17T04:06:13.172Z,93.60
2018-09-17T04:08:42.223Z,93.80
2018-09-17T04:11:11.301Z,93.10
2018-09-17T04:13:40.593Z,93.80
2018-09-17T04:16:09.871Z,94.80
2018-09-17T04:18:38.900Z,94.80
2018-09-17T04:21:07.968Z,93.90
2018-09-17T04:23:38.724Z,91.90
2018-09-17T04:26:09.904Z,92.50
2018-09-17T04:28:39.493Z,93.70
2018-09-17T04:31:08.684Z,92.70
2018-09-17T04:33:40.200Z,92.00
2018-09-17T04:36:10.782Z,91.50
2018-09-17T04:41:00.713Z,93.70
2018-09-17T04:43:29.766Z,95.40
2018-09-17T04:45:59.133Z,94.70
2018-09-17T04:48:29.211Z,93.30
2018-09-17T04:50:58.376Z,92.40
2018-09-17T04:53:27.525Z,91.80
2018-09-17T04:55:56.637Z,91.50
2018-09-17T04:58:25.671Z,92.40
2018-09-17T05:00:54.898Z,93.10
2018-09-17T05:03:24.026Z,93.60
2018-09-17T05:05:53.095Z,94.40
2018-09-17T05:08:22.469Z,93.90
2018-09-17T05:10:51.585Z,93.70
2018-09-17T05:13:20.793Z,93.10
2018-09-17T05:15:49.820Z,93.40
2018-09-17T05:18:18.928Z,92.80
2018-09-17T05:20:48.556Z,93.70
2018-09-17T05:23:18.756Z,94.50
2018-09-17T05:25:47.817Z,93.30
2018-09-17T05:28:16.926Z,91.60
2018-09-17T05:30:46.063Z,91.30
2018-09-17T05:33:15.250Z,91.60
2018-09-17T05:35:44.465Z,91.60
2018-09-17T05:39:42.959Z,90.80
2018-09-17T05:42:12.537Z,92.70
2018-09-17T05:44:41.879Z,93.30
2018-09-17T05:47:10.994Z,94.10
2018-09-17T05:49:40.211Z,92.50
2018-09-17T05:52:09.379Z,94.30
2018-09-17T05:54:38.431Z,93.20
2018-09-17T05:57:07.513Z,88.40
2018-09-17T05:59:36.710Z,80.60
2018-09-17T06:02:05.905Z,74.80
2018-09-17T06:04:35.067Z,71.80
2018-09-17T06:07:04.331Z,66.70
2018-09-17T06:09:33.980Z,63.10
2018-09-17T06:12:03.198Z,60.90
2018-09-17T06:14:32.390Z,59.30
2018-09-17T06:17:02.342Z,58.20
2018-09-17T06:19:31.466Z,56.50
2018-09-17T06:22:00.556Z,55.40
2018-09-17T06:24:30.367Z,52.40
2018-09-17T06:26:59.442Z,49.60
2018-09-17T06:29:28.549Z,48.30
2018-09-17T06:31:57.692Z,45.50
2018-09-17T06:34:27.501Z,44.30
2018-09-17T06:39:25.836Z,47.70
2018-09-17T06:41:54.926Z,46.20
2018-09-17T06:44:24.006Z,44.90
2018-09-17T06:46:53.202Z,43.40
2018-09-17T06:49:22.328Z,40.90
2018-09-17T06:51:51.683Z,40.10
2018-09-17T06:54:20.744Z,39.10
2018-09-17T06:56:49.888Z,39.40
2018-09-17T06:59:18.922Z,37.30
2018-09-17T07:01:48.680Z,38.40
2018-09-17T07:04:17.965Z,39.20
2018-09-17T07:06:47.100Z,38.90
2018-09-17T07:09:16.273Z,38.30
2018-09-17T07:11:45.282Z,38.40
2018-09-17T07:14:14.409Z,37.20
2018-09-17T07:16:44.044Z,36.50
2018-09-17T07:19:13.492Z,36.20
2018-09-17T07:21:42.545Z,34.20
2018-09-17T07:24:11.704Z,34.50
2018-09-17T07:26:41.376Z,34.50
2018-09-17T07:29:10.501Z,34.20
2018-09-17T07:31:40.242Z,32.30
2018-09-17T07:34:09.580Z,32.40
2018-09-17T07:36:38.662Z,32.10
2018-09-17T07:39:09.427Z,31.80
2018-09-17T07:41:38.479Z,31.90
2018-09-17T07:44:07.677Z,33.20
2018-09-17T07:46:36.792Z,31.50
2018-09-17T07:49:05.839Z,32.10
2018-09-17T07:51:34.974Z,32.80
2018-09-17T07:54:04.217Z,33.00
2018-09-17T07:56:33.982Z,34.40
2018-09-17T07:59:03.089Z,33.00
2018-09-17T08:01:33.270Z,32.70
2018-09-17T08:04:02.502Z,32.80
2018-09-17T08:06:31.794Z,32.10
2018-09-17T08:09:00.905Z,32.00
2018-09-17T08:11:31.102Z,31.70
2018-09-17T08:14:00.350Z,33.50
2018-09-17T08:16:29.416Z,32.90
2018-09-17T08:18:58.771Z,33.30
2018-09-17T08:21:28.092Z,34.40
2018-09-17T08:23:57.188Z,35.10
2018-09-17T08:26:26.315Z,35.00
2018-09-17T08:28:55.364Z,33.30
2018-09-17T08:31:24.600Z,32.10
2018-09-17T08:33:53.588Z,32.80
2018-09-17T08:36:22.895Z,31.70
2018-09-17T08:38:52.647Z,32.80
2018-09-17T08:41:22.033Z,30.90
2018-09-17T08:43:51.132Z,30.50
2018-09-17T08:46:20.436Z,29.50
2018-09-17T08:48:49.508Z,29.80
2018-09-17T08:51:19.027Z,30.00
2018-09-17T08:53:48.077Z,28.50
2018-09-17T08:56:27.165Z,28.60
2018-09-17T08:58:58.426Z,28.60
2018-09-17T09:01:30.082Z,28.10
2018-09-17T09:04:04.549Z,25.80
2018-09-17T09:06:39.073Z,26.50
2018-09-17T09:09:10.181Z,26.90
2018-09-17T09:11:44.688Z,25.20
2018-09-17T09:14:19.084Z,24.10
2018-09-17T09:16:48.244Z,24.90
2018-09-17T09:19:17.260Z,25.00
2018-09-17T09:21:46.328Z,25.50
2018-09-17T09:24:15.445Z,25.70
2018-09-17T09:26:45.245Z,26.50
2018-09-17T09:29:14.473Z,26.60
2018-09-17T09:31:43.672Z,26.90
2018-09-17T09:34:12.784Z,25.50
2018-09-17T09:36:41.976Z,26.50
2018-09-17T09:39:12.189Z,25.00
2018-09-17T09:41:41.394Z,24.80
2018-09-17T09:44:11.208Z,23.90
2018-09-17T09:46:40.263Z,23.90
2018-09-17T09:49:09.313Z,22.60
2018-09-17T09:51:38.467Z,23.70
2018-09-17T09:54:07.566Z,22.20
2018-09-17T09:56:36.670Z,22.70
2018-09-17T09:59:06.621Z,23.70
2018-09-17T10:01:40.988Z,23.00
2018-09-17T10:04:15.417Z,22.60
2018-09-17T10:06:44.552Z,22.40
2018-09-17T10:09:18.815Z,22.20
2018-09-17T10:12:57.088Z,21.90
2018-09-17T10:15:31.535Z,22.00
2018-09-17T10:18:06.651Z,20.00
2018-09-17T10:20:35.723Z,20.40
2018-09-17T10:23:04.932Z,21.30
2018-09-17T10:25:33.968Z,19.80
2018-09-17T10:28:03.084Z,19.80
2018-09-17T10:30:32.650Z,19.00
2018-09-17T10:33:01.754Z,18.30
2018-09-17T10:35:30.928Z,18.20
2018-09-17T10:38:00.126Z,18.40
2018-09-17T10:40:29.996Z,18.50
2018-09-17T10:42:59.234Z,17.80
2018-09-17T10:45:28.340Z,17.90
2018-09-17T10:47:57.514Z,17.70
2018-09-17T10:50:26.575Z,18.30
2018-09-17T10:52:56.372Z,17.30
2018-09-17T10:55:25.441Z,14.90
2018-09-17T10:57:54.565Z,15.40
2018-09-17T11:00:24.099Z,15.70
2018-09-17T11:02:54.100Z,14.60
2018-09-17T11:05:23.731Z,14.90
2018-09-17T11:07:52.814Z,12.70
2018-09-17T11:10:22.769Z,13.30
2018-09-17T11:12:51.832Z,13.20
2018-09-17T11:15:21.088Z,12.70
2018-09-17T11:17:50.863Z,12.70
2018-09-17T11:20:20.012Z,11.80
2018-09-17T11:22:49.165Z,12.80
2018-09-17T11:25:18.350Z,13.60
2018-09-17T11:27:47.458Z,12.80
2018-09-17T11:30:17.184Z,12.90
2018-09-17T11:32:46.727Z,12.10
2018-09-17T11:35:15.764Z,12.70
2018-09-17T11:37:44.932Z,11.10
2018-09-17T11:40:13.992Z,12.20
2018-09-17T11:42:43.985Z,12.30
2018-09-17T11:45:13.035Z,12.80
2018-09-17T11:47:42.113Z,11.70
2018-09-17T11:50:11.520Z,11.50
2018-09-17T11:52:41.412Z,10.10
2018-09-17T11:55:11.114Z,10.50
2018-09-17T11:57:40.244Z,11.10
2018-09-17T12:00:09.626Z,11.40
2018-09-17T12:02:42.994Z,10.40
2018-09-17T12:05:16.329Z,10.50
2018-09-17T12:07:46.283Z,10.70
2018-09-17T12:10:15.948Z,11.00
2018-09-17T12:12:45.016Z,11.20
2018-09-17T12:15:14.273Z,11.30
2018-09-17T12:17:43.400Z,12.30
2018-09-17T12:20:12.876Z,11.80
2018-09-17T12:22:41.926Z,12.40
2018-09-17T12:25:11.728Z,11.00
2018-09-17T12:27:41.492Z,11.00
2018-09-17T12:30:10.952Z,10.30
2018-09-17T12:32:39.981Z,10.10
2018-09-17T12:35:09.194Z,10.30
2018-09-17T12:37:38.261Z,10.20
2018-09-17T12:40:07.370Z,10.70
2018-09-17T12:42:36.584Z,11.30
2018-09-17T12:45:05.852Z,12.10
2018-09-17T12:47:34.983Z,10.70
2018-09-17T12:50:04.241Z,10.30
2018-09-17T12:52:33.326Z,10.10
2018-09-17T12:55:02.431Z,10.90
2018-09-17T12:57:31.609Z,9.30
2018-09-17T13:00:00.881Z,9.70
2018-09-17T13:02:29.995Z,10.10
2018-09-17T13:04:59.129Z,10.20
2018-09-17T13:07:28.283Z,10.30
2018-09-17T13:09:57.495Z,9.80
2018-09-17T13:12:26.554Z,9.20
2018-09-17T13:14:56.350Z,9.10
2018-09-17T13:17:25.977Z,9.20
2018-09-17T13:19:55.038Z,9.50
2018-09-17T13:22:24.760Z,10.50
2018-09-17T13:24:53.914Z,9.90
2018-09-17T13:27:23.098Z,10.10
2018-09-17T13:29:52.181Z,8.30
2018-09-17T13:32:21.337Z,9.00
2018-09-17T13:34:50.399Z,8.90
2018-09-17T13:37:19.461Z,9.00
2018-09-17T13:39:48.577Z,9.80
2018-09-17T13:42:17.629Z,10.80
2018-09-17T13:44:46.702Z,10.80
2018-09-17T13:47:15.949Z,12.20
2018-09-17T13:49:45.131Z,11.40
2018-09-17T13:52:14.217Z,11.40
2018-09-17T13:54:44.374Z,11.50
2018-09-17T13:57:13.491Z,12.20
2018-09-17T13:59:42.541Z,12.80
2018-09-17T14:02:11.688Z,13.10
2018-09-17T14:04:40.733Z,12.90
2018-09-17T14:07:09.941Z,11.70
2018-09-17T14:09:39.563Z,10.10
2018-09-17T14:12:09.149Z,11.70
2018-09-17T14:14:38.327Z,11.40
2018-09-17T14:17:07.603Z,10.80
2018-09-17T14:19:38.047Z,10.70
2018-09-17T14:22:07.341Z,12.20
2018-09-17T14:24:36.557Z,12.20
2018-09-17T14:27:05.846Z,11.40
2018-09-17T14:29:34.989Z,10.90
2018-09-17T14:32:09.572Z,11.10
2018-09-17T14:34:38.619Z,11.60
2018-09-17T14:37:07.801Z,11.70
2018-09-17T14:39:37.017Z,10.90
2018-09-17T14:42:06.646Z,9.90
2018-09-17T14:44:35.744Z,9.30
2018-09-17T14:47:04.975Z,9.90
2018-09-17T14:49:34.689Z,10.20
2018-09-17T14:52:04.221Z,10.20
2018-09-17T14:54:33.370Z,9.80
2018-09-17T14:57:02.630Z,10.60
2018-09-17T14:59:31.770Z,10.40
2018-09-17T15:02:01.314Z,10.00
2018-09-17T15:04:30.543Z,10.20
2018-09-17T15:06:59.657Z,10.60
2018-09-17T15:09:28.849Z,11.00
2018-09-17T15:11:57.936Z,10.40
2018-09-17T15:14:28.686Z,10.00
2018-09-17T15:16:58.525Z,9.80
2018-09-17T15:19:27.615Z,10.80
2018-09-17T15:21:56.686Z,10.20
2018-09-17T15:24:25.782Z,11.10
2018-09-17T15:26:54.873Z,10.80
2018-09-17T15:29:23.951Z,11.20
2018-09-17T15:31:53.119Z,11.80
2018-09-17T15:34:23.294Z,11.10
2018-09-17T15:36:52.394Z,10.70
2018-09-17T15:39:21.526Z,11.20
2018-09-17T15:41:50.687Z,10.80
2018-09-17T15:44:20.481Z,10.10
2018-09-17T15:46:50.632Z,11.10
2018-09-17T15:49:20.467Z,10.20
2018-09-17T15:51:49.982Z,10.10
2018-09-17T15:54:18.963Z,9.30
2018-09-17T15:56:48.681Z,9.40
2018-09-17T15:59:18.670Z,9.00
2018-09-17T16:01:48.668Z,9.10
2018-09-17T16:04:17.769Z,9.80
2018-09-17T16:06:46.900Z,9.20
2018-09-17T16:09:16.047Z,9.70
2018-09-17T16:11:45.139Z,9.70
2018-09-17T16:14:14.375Z,10.00
2018-09-17T16:16:44.156Z,10.20
2018-09-17T16:19:13.565Z,10.00
2018-09-17T16:21:42.668Z,10.30
2018-09-17T16:24:11.784Z,9.80
2018-09-17T16:26:40.893Z,10.20
2018-09-17T16:29:10.088Z,9.80
2018-09-17T16:31:39.113Z,10.90
2018-09-17T16:34:08.419Z,11.20
2018-09-17T16:36:37.632Z,12.50
2018-09-17T16:39:08.624Z,13.30
2018-09-17T16:41:37.833Z,14.20
2018-09-17T16:44:07.369Z,16.50
2018-09-17T16:46:37.058Z,16.30
2018-09-17T16:49:06.302Z,18.40
2018-09-17T16:51:35.361Z,18.60
2018-09-17T16:54:04.519Z,19.20
2018-09-17T16:56:33.656Z,19.90
2018-09-17T16:59:03.366Z,20.70
2018-09-17T17:01:32.420Z,21.30
2018-09-17T17:04:01.608Z,21.20
2018-09-17T17:06:30.708Z,22.60
2018-09-17T17:08:59.795Z,22.20
2018-09-17T17:11:28.935Z,23.00
2018-09-17T17:13:58.050Z,24.80
2018-09-17T17:16:27.807Z,24.50
2018-09-17T17:18:57.053Z,25.10
2018-09-17T17:21:26.644Z,25.20
2018-09-17T17:23:55.734Z,26.30
2018-09-17T17:26:25.228Z,26.50
2018-09-17T17:28:54.416Z,26.20
2018-09-17T17:31:23.569Z,26.40
2018-09-17T17:33:53.194Z,26.40
2018-09-17T17:36:22.314Z,26.20
2018-09-17T17:38:51.425Z,30.20
2018-09-17T17:41:20.983Z,31.40
2018-09-17T17:43:50.069Z,31.10
2018-09-17T17:46:19.201Z,30.20
2018-09-17T17:48:48.387Z,29.60
2018-09-17T17:51:17.505Z,29.40
2018-09-17T17:53:46.614Z,31.00
2018-09-17T17:56:15.745Z,30.70
2018-09-17T17:58:44.884Z,32.10
2018-09-17T18:01:14.146Z,31.90
2018-09-17T18:03:43.113Z,32.50
2018-09-17T18:06:12.143Z,33.40
2018-09-17T18:08:41.235Z,34.40
2018-09-17T18:11:10.386Z,34.80
2018-09-17T18:13:39.593Z,35.20
2018-09-17T18:16:08.721Z,36.30
2018-09-17T18:18:37.917Z,35.50
2018-09-17T18:21:07.402Z,36.70
2018-09-17T18:23:36.869Z,36.90
2018-09-17T18:26:05.931Z,37.60
2018-09-17T18:28:35.030Z,37.40
2018-09-17T18:31:04.116Z,37.60
2018-09-17T18:33:33.982Z,37.50
2018-09-17T18:36:03.117Z,38.80
2018-09-17T18:38:32.183Z,39.80
2018-09-17T18:41:01.315Z,39.40
2018-09-17T18:43:30.482Z,39.30
2018-09-17T18:46:00.220Z,39.30
2018-09-17T18:48:29.271Z,39.80
2018-09-17T18:50:58.460Z,39.80
2018-09-17T18:53:27.504Z,40.10
2018-09-17T18:55:56.596Z,39.10
2018-09-17T18:58:25.768Z,39.90
2018-09-17T19:00:54.912Z,39.40
2018-09-17T19:03:23.981Z,40.20
2018-09-17T19:05:53.145Z,42.50
2018-09-17T19:08:22.142Z,44.70
2018-09-17T19:10:51.320Z,46.10
2018-09-17T19:13:20.416Z,46.90
2018-09-17T19:15:52.092Z,47.10
2018-09-17T19:18:21.245Z,47.30
2018-09-17T19:20:51.280Z,46.20
2018-09-17T19:23:25.595Z,43.80
2018-09-17T19:25:55.261Z,42.50
2018-09-17T19:28:29.584Z,41.40
2018-09-17T19:30:58.776Z,41.60
2018-09-17T19:33:27.860Z,40.30
2018-09-17T19:35:57.049Z,40.30
2018-09-17T19:38:31.476Z,41.10
2018-09-17T19:41:00.628Z,40.20
2018-09-17T19:43:29.687Z,40.30
2018-09-17T19:46:15.893Z,42.50
2018-09-17T19:48:45.014Z,44.40
2018-09-17T19:53:48.376Z,46.30
2018-09-17T19:56:17.576Z,48.60
2018-09-17T19:59:55.413Z,48.80
2018-09-17T20:02:24.710Z,49.10
2018-09-17T20:04:59.005Z,49.00
2018-09-17T20:07:28.092Z,49.30
2018-09-17T20:09:57.288Z,48.90
2018-09-17T20:12:26.364Z,49.70
2018-09-17T20:14:55.556Z,50.60
2018-09-17T20:17:24.715Z,50.90
2018-09-17T20:19:53.800Z,50.30
2018-09-17T20:22:22.999Z,51.20
2018-09-17T20:24:52.115Z,52.00
2018-09-17T20:27:22.023Z,51.00
2018-09-17T20:29:51.134Z,52.40
2018-09-17T20:32:20.242Z,52.00
2018-09-17T20:34:49.319Z,54.00
2018-09-17T20:37:18.502Z,55.10
2018-09-17T20:39:47.539Z,55.70
2018-09-17T20:42:16.635Z,55.80
2018-09-17T20:44:45.644Z,56.00
2018-09-17T20:47:14.850Z,55.90
2018-09-17T20:49:44.019Z,55.70
2018-09-17T20:52:13.124Z,55.70
2018-09-17T20:54:42.306Z,55.90
2018-09-17T20:57:11.316Z,56.10
2018-09-17T20:59:40.552Z,56.30
2018-09-17T21:02:09.717Z,56.40
2018-09-17T21:04:38.749Z,56.10
2018-09-17T21:07:07.863Z,55.40
2018-09-17T21:09:37.005Z,57.30
2018-09-17T21:12:06.077Z,55.70
2018-09-17T21:14:35.129Z,56.00
2018-09-17T21:17:04.359Z,55.50
2018-09-17T21:19:33.444Z,55.50
2018-09-17T21:22:02.552Z,56.30
2018-09-17T21:24:31.638Z,55.50
2018-09-17T21:27:00.779Z,53.60
2018-09-17T21:29:30.460Z,54.20
2018-09-17T21:31:59.653Z,52.60
2018-09-17T21:34:29.479Z,52.70
2018-09-17T21:36:58.989Z,51.90
2018-09-17T21:39:27.907Z,51.00
2018-09-17T21:41:57.011Z,52.30
2018-09-17T21:44:26.189Z,54.80
2018-09-17T21:46:55.249Z,56.80
2018-09-17T21:49:24.349Z,56.50
2018-09-17T21:51:53.458Z,57.20
2018-09-17T21:54:22.626Z,57.00
2018-09-17T21:56:51.888Z,56.20
2018-09-17T21:59:20.930Z,56.30
2018-09-17T22:01:50.216Z,57.80
2018-09-17T22:04:19.295Z,59.00
2018-09-17T22:06:48.377Z,60.40
2018-09-17T22:09:17.588Z,60.20
2018-09-17T22:11:46.747Z,61.20
2018-09-17T22:14:15.994Z,62.30
2018-09-17T22:16:45.109Z,63.50
2018-09-17T22:19:14.212Z,63.30
2018-09-17T22:21:43.327Z,62.30
2018-09-17T22:24:12.417Z,62.00
2018-09-17T22:26:41.449Z,60.30
2018-09-17T22:29:10.650Z,61.80
2018-09-17T22:31:39.740Z,62.40
2018-09-17T22:34:08.832Z,63.10
2018-09-17T22:36:37.989Z,63.80
2018-09-17T22:39:08.977Z,64.80
2018-09-17T22:41:38.544Z,65.20
2018-09-17T22:44:07.982Z,64.00
2018-09-17T22:46:37.110Z,62.80
2018-09-17T22:49:06.813Z,63.20
2018-09-17T22:51:35.916Z,63.00
2018-09-17T22:54:05.135Z,62.60
2018-09-17T22:56:34.348Z,63.10
2018-09-17T22:59:03.810Z,64.20
2018-09-17T23:01:33.359Z,63.40
2018-09-17T23:04:02.471Z,63.10
2018-09-17T23:06:31.517Z,65.00
2018-09-17T23:09:00.773Z,63.30
2018-09-17T23:11:29.836Z,63.00
2018-09-17T23:13:58.877Z,62.40
2018-09-17T23:16:28.270Z,62.90
2018-09-17T23:18:57.367Z,62.90
2018-09-17T23:21:26.546Z,63.30
2018-09-17T23:23:55.714Z,63.70
2018-09-17T23:26:24.883Z,64.10
2018-09-17T23:28:54.176Z,63.70
2018-09-17T23:31:23.268Z,63.30
2018-09-17T23:33:52.457Z,63.60
2018-09-17T23:36:21.492Z,63.70
2018-09-17T23:38:50.901Z,63.70
2018-09-17T23:41:19.965Z,63.70
2018-09-17T23:43:49.143Z,64.40
2018-09-17T23:46:18.293Z,63.80
2018-09-17T23:48:48.089Z,64.00
2018-09-17T23:51:17.180Z,63.20
2018-09-17T23:53:46.432Z,64.50
2018-09-17T23:56:16.216Z,66.40
2018-09-17T23:58:45.275Z,66.70
